Time;durP1;ratioP1;P1;durP2;ratioP2;P2;SDS_P1;SDS_P2;PMS_P1;PMS_P2;Temp;Humidity;BMP_temperature;BMP_pressure;BME280_temperature;BME280_humidity;BME280_pressure;Samples;Min_cycle;Max_cycle;Signal;HPM_P1;HPM_P2
2021/08/23 00:01:20;;;;;;;25.55;8.85;;;;;;;17.20;92.92;102243.38;5027555;28;20052;-88
2021/08/23 00:03:45;;;;;;;17.33;8.25;;;;;;;17.18;93.02;102245.47;5023110;28;20060;-86
2021/08/23 00:06:11;;;;;;;23.33;8.95;;;;;;;17.14;93.15;102251.25;5023164;28;21858;-85
2021/08/23 00:08:37;;;;;;;19.73;9.20;;;;;;;17.01;93.28;102240.13;5025502;28;20038;-86
2021/08/23 00:11:03;;;;;;;18.15;8.27;;;;;;;16.96;93.43;102231.69;5008290;28;20053;-86
2021/08/23 00:13:29;;;;;;;21.80;9.10;;;;;;;16.91;93.77;102226.81;4988474;28;20074;-86
2021/08/23 00:15:55;;;;;;;24.90;8.98;;;;;;;16.88;93.89;102226.31;5005637;28;20037;-86
2021/08/23 00:18:21;;;;;;;24.38;9.05;;;;;;;17.00;93.86;102249.34;4989139;28;20117;-85
2021/08/23 00:20:54;;;;;;;22.58;8.73;;;;;;;16.91;93.92;102242.28;5010316;28;20085;-85
2021/08/23 00:23:21;;;;;;;20.83;8.38;;;;;;;16.99;93.94;102257.66;5025194;28;20022;-87
2021/08/23 00:25:47;;;;;;;26.80;8.52;;;;;;;16.93;94.01;102251.06;5026980;28;20032;-86
2021/08/23 00:28:12;;;;;;;23.67;10.10;;;;;;;16.98;93.96;102262.25;5025869;28;20033;-86
2021/08/23 00:30:38;;;;;;;21.67;8.75;;;;;;;17.01;93.97;102261.03;5010038;28;20021;-85
2021/08/23 00:33:04;;;;;;;21.15;9.57;;;;;;;17.04;93.61;102256.09;5025222;28;20037;-85
2021/08/23 00:35:30;;;;;;;22.48;8.95;;;;;;;17.04;92.97;102268.81;5008898;28;20087;-85
2021/08/23 00:37:58;;;;;;;22.92;9.55;;;;;;;17.00;92.95;102264.78;5043142;28;20080;-86
2021/08/23 00:40:24;;;;;;;23.17;9.77;;;;;;;16.91;93.18;102256.72;5011545;28;20025;-85
2021/08/23 00:42:51;;;;;;;21.15;8.65;;;;;;;16.95;93.57;102267.22;4995361;28;20108;-85
2021/08/23 00:45:20;;;;;;;21.85;9.25;;;;;;;16.99;93.43;102269.41;5027161;28;20075;-85
2021/08/23 00:47:46;;;;;;;23.50;9.05;;;;;;;16.99;93.82;102268.53;5010140;28;20069;-86
2021/08/23 00:50:12;;;;;;;20.65;9.18;;;;;;;16.91;93.82;102256.72;4993193;28;20082;-86
2021/08/23 00:52:38;;;;;;;22.05;9.23;;;;;;;16.98;93.56;102264.13;5009426;28;20485;-85
2021/08/23 00:55:04;;;;;;;24.35;9.13;;;;;;;16.74;93.47;102222.50;5026569;28;20476;-86
2021/08/23 00:57:30;;;;;;;24.67;8.73;;;;;;;16.82;93.34;102236.03;5026474;28;20033;-86
2021/08/23 00:59:55;;;;;;;17.75;9.13;;;;;;;16.95;93.44;102256.34;5007327;28;20164;-85
2021/08/23 01:02:29;;;;;;;25.45;9.80;;;;;;;16.95;93.42;102250.91;5008068;28;20080;-86
2021/08/23 01:05:06;;;;;;;23.63;9.25;;;;;;;16.98;93.39;102262.25;5010380;28;20108;-87
2021/08/23 01:08:05;;;;;;;24.98;9.70;;;;;;;16.99;93.03;102258.53;5028560;28;20036;-86
2021/08/23 01:10:37;;;;;;;24.88;9.27;;;;;;;16.97;93.27;102252.41;5029462;28;20115;-89
2021/08/23 01:13:06;;;;;;;21.02;8.77;;;;;;;16.98;92.96;102262.25;5011892;28;20030;-87
2021/08/23 01:15:36;;;;;;;18.25;9.50;;;;;;;16.90;93.16;102259.59;5045732;28;20088;-86
2021/08/23 01:18:02;;;;;;;23.67;9.30;;;;;;;16.90;93.25;102260.44;5031265;28;20030;-86
2021/08/23 01:20:27;;;;;;;19.35;9.02;;;;;;;16.87;93.51;102259.97;5029218;28;20025;-86
2021/08/23 01:22:54;;;;;;;26.55;9.70;;;;;;;16.90;93.29;102271.31;5030911;28;20075;-86
2021/08/23 01:25:29;;;;;;;22.58;9.63;;;;;;;16.88;93.32;102272.50;4995358;28;20496;-87
2021/08/23 01:28:16;;;;;;;22.95;9.77;;;;;;;16.83;93.05;102270.34;5027562;28;20400;-85
2021/08/23 01:31:07;;;;;;;24.77;9.95;;;;;;;16.80;93.51;102261.69;5026064;28;20034;-85
2021/08/23 01:33:33;;;;;;;25.83;9.43;;;;;;;16.77;93.54;102271.06;5027584;28;20053;-84
2021/08/23 01:35:59;;;;;;;22.75;8.68;;;;;;;16.72;93.77;102262.56;5011547;28;20033;-85
2021/08/23 01:38:25;;;;;;;25.25;9.13;;;;;;;16.70;93.75;102270.06;5026239;28;20025;-85
2021/08/23 01:41:09;;;;;;;19.58;9.15;;;;;;;16.67;93.62;102268.56;5031163;28;20043;-86
2021/08/23 01:43:35;;;;;;;27.55;9.73;;;;;;;16.74;93.84;102275.97;5028928;28;20392;-85
2021/08/23 01:46:01;;;;;;;25.08;10.68;;;;;;;16.70;93.64;102270.91;5026728;28;20559;-85
2021/08/23 01:48:26;;;;;;;24.52;9.40;;;;;;;16.71;93.74;102275.31;5019158;28;20089;-85
2021/08/23 01:50:52;;;;;;;24.17;10.70;;;;;;;16.70;93.85;102276.34;5010939;28;20106;-85
2021/08/23 01:53:18;;;;;;;25.05;9.95;;;;;;;16.62;93.91;102276.41;5012412;28;20033;-85
2021/08/23 01:55:44;;;;;;;22.05;9.70;;;;;;;16.66;94.03;102288.56;5025846;28;20108;-86
2021/08/23 01:58:10;;;;;;;23.00;10.60;;;;;;;16.60;94.42;102277.59;5029607;28;20121;-85
2021/08/23 02:00:36;;;;;;;28.98;9.63;;;;;;;16.64;94.25;102277.03;5012246;28;20036;-86
2021/08/23 02:03:02;;;;;;;22.45;10.10;;;;;;;16.64;94.06;102271.59;5011773;28;20207;-85
2021/08/23 02:05:28;;;;;;;27.08;10.27;;;;;;;16.65;94.19;102277.91;5008186;28;20029;-86
2021/08/23 02:07:54;;;;;;;25.80;9.52;;;;;;;16.66;94.12;102285.84;5028361;28;20036;-85
2021/08/23 02:10:20;;;;;;;24.13;10.10;;;;;;;16.67;94.28;102275.84;5009688;28;20017;-86
2021/08/23 02:12:47;;;;;;;21.98;9.00;;;;;;;16.68;94.04;102280.25;4995689;28;20036;-86
2021/08/23 02:15:12;;;;;;;24.73;10.35;;;;;;;16.64;94.09;102273.47;5001401;28;20022;-85
2021/08/23 02:17:38;;;;;;;21.65;10.00;;;;;;;16.49;94.40;102251.69;4993036;28;20029;-85
2021/08/23 02:20:11;;;;;;;24.63;9.02;;;;;;;16.65;94.13;102276.03;5013313;28;20021;-85
2021/08/23 02:22:37;;;;;;;;;;;;;;;16.69;94.30;102279.22;4995376;28;20045;-86
2021/08/23 02:25:06;;;;;;;21.20;10.07;;;;;;;16.66;94.37;102280.44;5011938;28;20530;-85
2021/08/23 02:27:33;;;;;;;26.52;10.35;;;;;;;16.63;94.22;102275.34;5012350;28;20068;-85
2021/08/23 02:29:59;;;;;;;22.38;9.40;;;;;;;16.66;94.60;102285.84;5007793;28;20436;-86
2021/08/23 02:32:24;;;;;;;28.50;10.43;;;;;;;16.63;94.49;102278.06;5020937;28;20021;-85
2021/08/23 02:34:50;;;;;;;22.20;9.23;;;;;;;16.60;94.51;102286.59;5010626;28;20044;-85
2021/08/23 02:37:17;;;;;;;20.15;9.50;;;;;;;16.47;94.88;102268.16;4992206;28;20476;-85
2021/08/23 02:39:42;;;;;;;24.88;9.38;;;;;;;16.38;94.95;102261.09;5022538;28;20061;-86
2021/08/23 02:42:08;;;;;;;24.98;10.02;;;;;;;16.48;95.10;102285.28;5006615;28;20025;-85
2021/08/23 02:44:34;;;;;;;23.33;9.23;;;;;;;16.44;95.20;102273.09;5026857;28;20063;-85
2021/08/23 02:46:59;;;;;;;22.30;9.98;;;;;;;16.55;95.18;102288.16;5008345;28;20021;-86
2021/08/23 02:49:26;;;;;;;22.10;9.27;;;;;;;16.51;94.94;102276.78;5000797;28;20024;-86
2021/08/23 02:51:53;;;;;;;21.25;8.60;;;;;;;16.56;95.41;102284.41;4999297;28;20502;-86
2021/08/23 02:54:19;;;;;;;20.60;9.02;;;;;;;16.51;95.27;102282.19;5012477;28;20029;-86
2021/08/23 02:56:44;;;;;;;25.73;9.43;;;;;;;16.48;95.11;102274.41;5019614;28;20542;-86
2021/08/23 02:59:10;;;;;;;21.02;9.18;;;;;;;16.31;95.15;102253.81;5010615;28;20060;-86
2021/08/23 03:01:36;;;;;;;20.67;9.35;;;;;;;16.41;94.89;102281.59;5012087;28;20024;-87
2021/08/23 03:04:01;;;;;;;20.50;8.68;;;;;;;16.46;95.05;102280.03;4993987;28;20021;-86
2021/08/23 03:06:27;;;;;;;25.00;8.80;;;;;;;16.42;94.72;102258.84;4997126;28;20025;-87
2021/08/23 03:08:53;;;;;;;24.60;9.60;;;;;;;16.34;94.52;102251.59;5015016;28;20060;-85
2021/08/23 03:11:18;;;;;;;21.15;9.05;;;;;;;16.51;94.32;102270.50;5015211;28;20071;-87
2021/08/23 03:13:44;;;;;;;17.13;8.10;;;;;;;16.58;94.13;102283.19;4992245;28;20503;-86
2021/08/23 03:16:11;;;;;;;25.70;9.80;;;;;;;16.37;93.89;102253.09;5005675;28;20022;-86
2021/08/23 03:18:37;;;;;;;21.83;9.27;;;;;;;16.39;93.79;102253.78;5009052;28;20095;-86
2021/08/23 03:21:03;;;;;;;21.30;8.95;;;;;;;16.40;93.84;102263.59;5008180;28;20026;-86
2021/08/23 03:23:29;;;;;;;18.58;9.05;;;;;;;16.56;93.95;102292.53;5008063;28;20051;-85
2021/08/23 03:25:55;;;;;;;19.23;8.90;;;;;;;16.42;94.25;102264.28;4994463;28;20626;-86
2021/08/23 03:28:21;;;;;;;21.77;9.57;;;;;;;16.47;94.37;102283.59;5010364;28;20137;-86
2021/08/23 03:30:46;;;;;;;18.88;8.90;;;;;;;16.36;94.65;102259.56;5009485;28;20124;-85
2021/08/23 03:33:12;;;;;;;21.40;8.40;;;;;;;16.52;94.49;102283.91;4998381;28;20026;-86
2021/08/23 03:35:38;;;;;;;19.60;9.18;;;;;;;16.43;94.44;102274.97;5008697;28;20030;-86
2021/08/23 03:38:04;;;;;;;21.70;9.68;;;;;;;16.50;94.12;102272.38;5005739;28;20061;-86
2021/08/23 03:40:30;;;;;;;21.65;9.43;;;;;;;16.57;94.41;102286.09;5027267;28;20477;-86
2021/08/23 03:42:56;;;;;;;19.73;8.27;;;;;;;16.54;94.36;102279.16;5016029;28;20049;-86
2021/08/23 03:45:22;;;;;;;18.92;9.02;;;;;;;16.46;94.75;102274.63;5012106;28;20502;-86
2021/08/23 03:47:47;;;;;;;18.60;8.55;;;;;;;16.51;94.67;102275.94;5024917;28;20033;-87
2021/08/23 03:50:13;;;;;;;19.83;8.55;;;;;;;16.43;94.80;102276.81;5010694;28;20022;-86
2021/08/23 03:52:39;;;;;;;23.08;9.30;;;;;;;16.35;94.96;102277.69;5002456;28;20033;-86
2021/08/23 03:55:05;;;;;;;18.95;8.43;;;;;;;16.38;95.19;102287.38;5003412;28;20023;-86
2021/08/23 03:57:35;;;;;;;21.65;8.70;;;;;;;16.36;94.88;102279.41;5020290;28;20112;-85
2021/08/23 04:00:03;;;;;;;21.05;9.25;;;;;;;16.41;94.99;102285.16;5007466;28;20396;-86
2021/08/23 04:02:29;;;;;;;18.77;8.25;;;;;;;16.35;95.23;102279.56;4994961;28;20079;-85
2021/08/23 04:04:55;;;;;;;17.30;8.32;;;;;;;16.37;95.20;102291.13;5007261;28;20033;-86
2021/08/23 04:07:20;;;;;;;18.85;8.73;;;;;;;16.33;95.27;102279.78;5027005;28;20021;-86
2021/08/23 04:09:46;;;;;;;21.17;8.65;;;;;;;16.35;95.00;102280.41;5027486;28;20927;-86
2021/08/23 04:12:12;;;;;;;20.60;8.38;;;;;;;16.40;95.07;102279.91;5024209;28;20022;-86
2021/08/23 04:14:38;;;;;;;17.45;8.25;;;;;;;16.31;95.18;102270.13;5023520;28;20029;-85
2021/08/23 04:17:03;;;;;;;19.77;8.38;;;;;;;16.40;95.04;102278.03;4991093;28;20014;-86
2021/08/23 04:19:30;;;;;;;20.85;8.18;;;;;;;16.46;95.03;102288.19;5010241;28;20049;-85
2021/08/23 04:21:56;;;;;;;20.05;8.00;;;;;;;16.43;94.85;102282.25;5007199;28;20032;-86
2021/08/23 04:24:21;;;;;;;17.60;8.50;;;;;;;16.39;95.16;102283.66;5006925;28;20033;-86
2021/08/23 04:26:47;;;;;;;21.30;9.07;;;;;;;16.36;95.32;102284.00;5014676;28;20030;-86
2021/08/23 04:29:13;;;;;;;23.20;9.18;;;;;;;16.38;95.19;102282.81;5010475;28;20499;-86
2021/08/23 04:31:39;;;;;;;21.70;9.57;;;;;;;16.44;95.24;102294.81;5023394;28;20092;-85
2021/08/23 04:34:04;;;;;;;24.25;9.52;;;;;;;16.27;94.82;102267.75;5006489;28;20052;-86
2021/08/23 04:36:30;;;;;;;24.45;9.50;;;;;;;16.45;95.03;102282.94;5006720;28;20065;-86
2021/08/23 04:38:56;;;;;;;21.42;9.82;;;;;;;16.44;94.94;102275.81;4994081;28;20017;-86
2021/08/23 04:41:22;;;;;;;23.80;8.75;;;;;;;16.51;95.02;102290.34;5010613;28;20562;-86
2021/08/23 04:43:47;;;;;;;22.80;8.70;;;;;;;16.49;95.32;102293.25;5026990;28;20025;-86
2021/08/23 04:46:13;;;;;;;23.55;9.60;;;;;;;16.41;95.66;102289.75;5025618;28;20082;-86
2021/08/23 04:48:39;;;;;;;21.90;9.02;;;;;;;16.45;95.62;102302.78;5004202;28;20496;-86
2021/08/23 04:51:06;;;;;;;27.85;9.80;;;;;;;16.34;95.74;102275.19;5002967;28;20480;-86
2021/08/23 04:53:32;;;;;;;20.98;9.07;;;;;;;16.44;95.40;102289.41;5002947;28;20034;-86
2021/08/23 04:55:58;;;;;;;23.88;9.48;;;;;;;16.31;95.71;102268.25;5027050;28;20017;-86
2021/08/23 04:58:23;;;;;;;25.90;9.75;;;;;;;16.28;95.64;102271.31;5021103;28;20029;-86
2021/08/23 05:00:49;;;;;;;23.13;9.05;;;;;;;16.40;95.94;102299.75;5026072;28;20025;-85
2021/08/23 05:03:15;;;;;;;21.88;9.75;;;;;;;16.35;95.55;102296.72;5008749;28;20025;-85
2021/08/23 05:05:41;;;;;;;23.95;8.45;;;;;;;16.39;95.89;102303.50;5005628;28;20029;-85
2021/08/23 05:08:07;;;;;;;20.92;8.43;;;;;;;16.34;95.85;102303.16;5029058;28;20029;-86
2021/08/23 05:10:32;;;;;;;19.17;9.55;;;;;;;16.37;95.52;102310.13;5009904;28;20413;-86
2021/08/23 05:12:58;;;;;;;17.15;8.55;;;;;;;16.37;95.74;102319.09;5013054;28;20026;-86
2021/08/23 05:15:24;;;;;;;17.58;8.88;;;;;;;16.33;95.78;102314.22;5000520;28;20137;-86
2021/08/23 05:17:50;;;;;;;19.27;8.70;;;;;;;16.16;95.96;102295.25;5013910;28;20153;-85
2021/08/23 05:20:16;;;;;;;19.95;8.88;;;;;;;16.13;95.78;102289.34;5013168;28;20079;-86
2021/08/23 05:22:42;;;;;;;19.45;9.55;;;;;;;16.32;95.67;102320.66;5029078;28;20510;-86
2021/08/23 05:25:07;;;;;;;22.65;8.73;;;;;;;16.28;96.02;102317.47;5012785;28;20029;-86
2021/08/23 05:27:33;;;;;;;18.98;9.70;;;;;;;16.36;95.66;102316.56;5014601;28;20072;-86
2021/08/23 05:30:04;;;;;;;21.75;10.00;;;;;;;16.37;95.43;102324.53;5009584;28;20484;-86
2021/08/23 05:32:29;;;;;;;18.77;8.52;;;;;;;16.34;95.53;102319.47;5021374;28;20030;-86
2021/08/23 05:34:55;;;;;;;20.05;8.20;;;;;;;16.35;95.72;102323.00;5012755;28;20515;-86
2021/08/23 05:37:21;;;;;;;16.52;8.32;;;;;;;16.35;95.92;102323.00;5030787;28;20072;-85
2021/08/23 05:39:47;;;;;;;23.13;8.85;;;;;;;16.31;95.68;102325.25;5012973;28;20037;-86
2021/08/23 05:42:14;;;;;;;19.92;8.18;;;;;;;16.25;95.79;102326.78;5025953;28;20061;-86
2021/08/23 05:44:41;;;;;;;18.23;8.48;;;;;;;16.23;95.98;102333.41;5029814;28;20033;-87
2021/08/23 05:47:07;;;;;;;17.63;8.45;;;;;;;16.21;96.04;102330.03;4997006;28;20183;-88
2021/08/23 05:49:33;;;;;;;21.23;9.25;;;;;;;16.21;96.10;102332.75;5003301;28;20028;-87
2021/08/23 05:52:00;;;;;;;19.20;8.15;;;;;;;16.11;96.44;102318.53;5028122;28;20391;-87
2021/08/23 05:54:26;;;;;;;22.42;10.50;;;;;;;16.15;96.27;102331.56;5016918;28;20068;-87
2021/08/23 05:56:53;;;;;;;18.35;8.80;;;;;;;16.17;96.25;102340.38;5013042;28;20033;-86
2021/08/23 05:59:19;;;;;;;18.38;8.13;;;;;;;16.13;96.33;102327.34;5031951;28;20112;-86
2021/08/23 06:01:44;;;;;;;16.17;7.72;;;;;;;16.26;96.00;102343.91;5032837;28;20025;-86
2021/08/23 06:04:10;;;;;;;18.45;9.43;;;;;;;16.18;95.78;102325.78;5028434;28;20199;-86
2021/08/23 06:06:38;;;;;;;22.10;8.70;;;;;;;16.22;95.54;102335.28;4997890;28;20029;-87
2021/08/23 06:09:03;;;;;;;16.77;9.15;;;;;;;16.15;95.63;102326.16;5013970;28;20120;-87
2021/08/23 06:11:29;;;;;;;18.38;8.50;;;;;;;16.27;96.23;102345.59;5022396;28;20112;-87
2021/08/23 06:13:55;;;;;;;17.13;8.38;;;;;;;16.29;95.59;102353.59;5031354;28;20037;-86
2021/08/23 06:16:20;;;;;;;21.65;9.13;;;;;;;16.29;95.90;102345.44;4999129;28;20029;-87
2021/08/23 06:18:46;;;;;;;17.10;8.63;;;;;;;16.21;95.61;102319.16;5013995;28;20116;-87
2021/08/23 06:21:12;;;;;;;22.33;8.48;;;;;;;16.33;95.71;102349.50;5013600;28;20038;-87
2021/08/23 06:23:37;;;;;;;23.00;10.25;;;;;;;16.37;95.52;102353.56;5026171;28;20535;-86
2021/08/23 06:26:03;;;;;;;20.58;9.27;;;;;;;16.40;95.51;102354.03;5030565;28;20025;-87
2021/08/23 06:28:28;;;;;;;24.50;8.35;;;;;;;16.38;95.42;102353.38;5008657;28;20568;-86
2021/08/23 06:30:54;;;;;;;21.25;9.27;;;;;;;16.36;95.54;102354.59;4995290;28;20030;-86
2021/08/23 06:33:20;;;;;;;24.48;9.85;;;;;;;16.41;95.27;102360.34;5007615;28;20022;-86
2021/08/23 06:35:46;;;;;;;21.10;9.60;;;;;;;16.49;95.17;102371.16;4989740;28;20089;-85
2021/08/23 06:38:11;;;;;;;22.17;9.02;;;;;;;16.56;94.98;102369.41;5030182;28;20057;-86
2021/08/23 06:40:37;;;;;;;20.75;9.00;;;;;;;16.53;95.29;102361.63;5029511;28;20769;-87
2021/08/23 06:43:04;;;;;;;20.30;9.07;;;;;;;16.55;94.92;102369.59;5031935;28;20025;-87
2021/08/23 06:45:29;;;;;;;21.15;9.50;;;;;;;16.53;95.17;102360.78;5010967;28;20377;-85
2021/08/23 06:47:55;;;;;;;22.50;9.45;;;;;;;16.54;95.23;102363.34;5011956;28;20557;-85
2021/08/23 06:50:21;;;;;;;20.88;8.85;;;;;;;16.29;95.34;102323.72;5020498;28;20052;-84
2021/08/23 06:52:46;;;;;;;21.20;8.65;;;;;;;16.33;95.28;102327.78;5024995;28;20439;-85
2021/08/23 06:55:12;;;;;;;19.33;9.10;;;;;;;16.53;95.43;102358.06;5002666;28;20481;-84
2021/08/23 06:57:38;;;;;;;23.27;9.70;;;;;;;16.56;94.88;102369.41;5009644;28;20091;-85
2021/08/23 07:00:05;;;;;;;21.48;9.95;;;;;;;16.64;95.36;102380.25;5028111;28;20795;-85
2021/08/23 07:02:30;;;;;;;23.30;8.85;;;;;;;16.62;95.29;102362.47;4995688;28;20024;-85
2021/08/23 07:04:56;;;;;;;19.85;10.05;;;;;;;16.68;95.22;102368.00;5021197;28;20021;-85
2021/08/23 07:07:22;;;;;;;20.60;10.05;;;;;;;16.62;95.27;102357.88;5012617;28;20025;-85
2021/08/23 07:09:48;;;;;;;25.38;9.98;;;;;;;16.66;95.08;102348.31;5008328;28;20045;-85
2021/08/23 07:12:14;;;;;;;32.58;10.85;;;;;;;16.86;94.72;102386.81;5037971;28;20033;-85
2021/08/23 07:14:40;;;;;;;27.80;11.55;;;;;;;16.86;94.84;102378.66;5003220;28;20059;-85
2021/08/23 07:17:06;;;;;;;26.63;9.55;;;;;;;16.96;94.73;102380.28;5027618;28;20032;-85
2021/08/23 07:19:33;;;;;;;25.45;10.77;;;;;;;17.01;94.68;102380.59;5018793;28;20499;-84
2021/08/23 07:21:58;;;;;;;27.17;10.70;;;;;;;17.05;94.25;102392.81;5016165;28;20022;-85
2021/08/23 07:24:24;;;;;;;31.90;10.95;;;;;;;17.11;94.20;102392.09;5010828;28;20021;-85
2021/08/23 07:26:50;;;;;;;28.73;10.48;;;;;;;17.10;93.93;102385.81;5000489;28;20060;-85
2021/08/23 07:29:17;;;;;;;26.83;10.95;;;;;;;17.11;93.95;102387.50;5015267;28;20025;-84
2021/08/23 07:31:43;;;;;;;32.17;13.48;;;;;;;17.26;93.98;102400.34;5021103;28;20049;-84
2021/08/23 07:34:08;;;;;;;28.35;10.20;;;;;;;17.26;94.06;102398.47;5039157;28;20029;-85
2021/08/23 07:36:34;;;;;;;26.77;11.43;;;;;;;17.27;94.01;102396.59;5000891;28;20024;-86
2021/08/23 07:39:00;;;;;;;33.00;12.05;;;;;;;17.30;93.70;102386.19;5011126;28;20033;-85
2021/08/23 07:41:25;;;;;;;24.70;10.63;;;;;;;17.48;93.50;102402.22;5025564;28;20159;-85
2021/08/23 07:43:51;;;;;;;30.48;10.52;;;;;;;17.53;92.97;102407.09;4993885;28;20400;-85
2021/08/23 07:46:17;;;;;;;26.10;10.25;;;;;;;17.63;92.94;102409.59;4994495;28;20032;-84
2021/08/23 07:48:44;;;;;;;24.60;10.30;;;;;;;17.67;92.29;102413.63;5023270;28;20057;-85
2021/08/23 07:51:10;;;;;;;23.17;9.18;;;;;;;17.71;92.28;102404.91;5024120;28;20137;-85
2021/08/23 07:53:37;;;;;;;19.83;9.32;;;;;;;17.79;92.28;102417.66;5003838;28;20079;-84
2021/08/23 07:56:03;;;;;;;22.95;9.25;;;;;;;17.80;91.96;102413.88;5005617;28;20029;-84
2021/08/23 07:58:29;;;;;;;21.75;8.70;;;;;;;17.97;91.00;102415.44;5007248;28;20021;-85
2021/08/23 08:00:54;;;;;;;18.73;9.70;;;;;;;18.06;90.62;102397.16;5019204;28;20043;-84
2021/08/23 08:03:20;;;;;;;20.83;9.30;;;;;;;18.38;90.13;102420.44;4995866;28;20017;-82
2021/08/23 08:05:46;;;;;;;21.92;9.05;;;;;;;18.59;89.26;102416.13;5011957;28;20491;-82
2021/08/23 08:08:11;;;;;;;15.98;8.80;;;;;;;18.67;88.39;102416.88;5025860;28;20109;-82
2021/08/23 08:10:37;;;;;;;17.10;8.63;;;;;;;18.75;87.56;102429.59;5027909;28;20032;-82
2021/08/23 08:13:03;;;;;;;15.50;7.72;;;;;;;18.70;86.96;102417.53;5013151;28;20026;-82
2021/08/23 08:15:29;;;;;;;19.20;8.73;;;;;;;18.60;86.96;102415.97;5009788;28;20037;-81
2021/08/23 08:17:55;;;;;;;19.27;9.88;;;;;;;18.58;87.08;102411.75;5005282;28;20021;-82
2021/08/23 08:20:20;;;;;;;14.07;7.70;;;;;;;18.60;86.97;102415.09;5025622;28;20021;-81
2021/08/23 08:22:46;;;;;;;14.43;7.55;;;;;;;18.61;86.67;102422.25;5023865;28;20372;-82
2021/08/23 08:25:12;;;;;;;15.73;8.43;;;;;;;18.74;86.88;102418.88;5026675;28;20029;-83
2021/08/23 08:27:38;;;;;;;17.55;8.68;;;;;;;18.91;86.25;102425.81;5026150;28;20048;-83
2021/08/23 08:30:05;;;;;;;15.38;7.72;;;;;;;19.00;85.99;102424.69;5008024;28;20046;-84
2021/08/23 08:32:31;;;;;;;16.33;7.88;;;;;;;19.09;85.47;102409.88;5026196;28;20121;-82
2021/08/23 08:34:56;;;;;;;15.40;8.75;;;;;;;19.26;84.64;102410.47;5029053;28;20373;-83
2021/08/23 08:37:22;;;;;;;14.82;7.65;;;;;;;19.43;83.97;102421.16;5026848;28;20069;-83
2021/08/23 08:39:48;;;;;;;15.40;7.40;;;;;;;19.44;83.21;102423.69;5028675;28;20087;-81
2021/08/23 08:42:17;;;;;;;14.18;6.78;;;;;;;19.36;83.31;102418.34;5001646;28;20025;-84
2021/08/23 08:44:44;;;;;;;14.55;7.05;;;;;;;19.48;83.86;102440.53;5015128;28;20040;-83
2021/08/23 08:47:15;;;;;;;19.08;8.88;;;;;;;19.56;83.38;102440.41;5014410;28;20030;-82
2021/08/23 08:49:41;;;;;;;12.73;6.90;;;;;;;19.72;82.11;102447.50;5029383;28;20448;-81
2021/08/23 08:52:08;;;;;;;14.75;7.28;;;;;;;19.65;82.51;102438.38;5025661;28;20108;-83
2021/08/23 08:54:34;;;;;;;10.48;6.45;;;;;;;19.68;82.23;102430.66;5030971;28;20507;-82
2021/08/23 08:57:03;;;;;;;12.63;7.45;;;;;;;19.82;81.35;102452.63;5014954;28;20034;-84
2021/08/23 08:59:30;;;;;;;11.77;6.07;;;;;;;19.81;81.06;102434.56;5023037;28;20024;-87
2021/08/23 09:01:57;;;;;;;13.98;6.28;;;;;;;19.84;80.72;102456.00;5015966;28;20083;-87
2021/08/23 09:04:31;;;;;;;8.90;5.30;;;;;;;19.81;80.87;102456.41;5016053;28;20055;-87
2021/08/23 09:06:58;;;;;;;9.45;5.63;;;;;;;19.75;80.37;102447.97;5016039;28;20431;-86
2021/08/23 09:09:25;;;;;;;9.68;5.22;;;;;;;19.74;80.42;102456.31;5012263;28;20022;-87
2021/08/23 09:12:11;;;;;;;8.70;5.22;;;;;;;19.67;80.32;102461.75;5012579;28;20057;-88
2021/08/23 09:14:47;;;;;;;10.60;5.35;;;;;;;19.59;80.19;102448.19;5015148;28;20779;-88
2021/08/23 09:17:13;;;;;;;10.95;5.40;;;;;;;19.54;80.32;102446.03;5029026;28;20468;-88
2021/08/23 09:19:40;;;;;;;9.80;5.22;;;;;;;19.59;80.36;102458.25;4995621;28;20045;-88
2021/08/23 09:22:07;;;;;;;8.07;4.93;;;;;;;19.71;80.51;102457.59;5004721;28;20050;-87
2021/08/23 09:24:37;;;;;;;9.73;5.22;;;;;;;19.73;79.77;102450.03;5009354;28;20018;-87
2021/08/23 09:27:07;;;;;;;9.13;5.00;;;;;;;19.83;79.30;102463.34;5040793;28;20527;-87
2021/08/23 09:29:59;;;;;;;8.85;4.93;;;;;;;19.87;78.82;102464.66;4998670;28;20040;-88
2021/08/23 09:32:30;;;;;;;8.65;4.32;;;;;;;19.91;78.84;102462.38;5015959;28;20052;-87
2021/08/23 09:34:58;;;;;;;7.65;4.65;;;;;;;19.91;78.96;102449.56;5024302;28;20025;-87
2021/08/23 09:37:29;;;;;;;9.82;4.90;;;;;;;20.01;79.47;102462.06;5024923;28;20077;-87
2021/08/23 09:39:55;;;;;;;9.80;4.38;;;;;;;20.04;79.71;102464.38;4995438;28;20575;-87
2021/08/23 09:42:22;;;;;;;8.48;4.55;;;;;;;20.19;79.51;102471.44;5010417;28;20036;-89
2021/08/23 09:44:49;;;;;;;8.80;4.82;;;;;;;20.22;78.45;102451.09;4996705;28;20062;-87
2021/08/23 09:47:15;;;;;;;7.15;4.47;;;;;;;20.30;78.47;102471.94;5009469;28;20033;-87
2021/08/23 09:49:44;;;;;;;6.40;4.53;;;;;;;20.30;77.84;102471.94;5030982;28;20029;-88
2021/08/23 09:52:21;;;;;;;8.13;5.25;;;;;;;20.30;78.13;102472.78;5010278;28;20072;-87
2021/08/23 09:55:06;;;;;;;6.57;4.75;;;;;;;20.38;77.21;102469.06;5011480;28;20025;-88
2021/08/23 09:58:00;;;;;;;7.22;4.70;;;;;;;20.47;77.07;102465.13;5011313;28;20032;-87
2021/08/23 10:00:26;;;;;;;8.38;4.80;;;;;;;20.41;77.25;102465.94;5014668;28;20132;-89
2021/08/23 10:03:29;;;;;;;7.57;4.40;;;;;;;20.48;77.59;102460.50;5013996;28;20056;-88
2021/08/23 10:05:58;;;;;;;7.20;4.28;;;;;;;20.52;77.18;102454.44;5031536;28;20021;-87
2021/08/23 10:08:25;;;;;;;5.90;3.97;;;;;;;20.69;77.19;102449.50;5022852;28;20025;-88
2021/08/23 10:10:51;;;;;;;8.18;4.80;;;;;;;20.83;76.32;102461.38;4997392;28;20025;-86
2021/08/23 10:13:17;;;;;;;7.45;4.30;;;;;;;20.82;75.80;102454.19;5029817;28;20100;-85
2021/08/23 10:15:43;;;;;;;7.03;4.20;;;;;;;20.72;75.60;102443.66;5027001;28;20558;-86
2021/08/23 10:18:08;;;;;;;7.25;4.50;;;;;;;20.80;76.00;102467.25;5010434;28;20080;-85
2021/08/23 10:20:36;;;;;;;6.57;4.30;;;;;;;20.89;75.35;102459.72;5023527;28;20480;-86
2021/08/23 10:23:03;;;;;;;9.48;5.18;;;;;;;20.96;75.60;102461.44;5012018;28;20021;-86
2021/08/23 10:25:38;;;;;;;5.82;4.03;;;;;;;21.04;74.87;102474.09;5002156;28;20025;-87
2021/08/23 10:28:06;;;;;;;7.70;4.88;;;;;;;20.94;75.02;102466.25;5014079;28;20032;-87
2021/08/23 10:30:31;;;;;;;8.23;4.78;;;;;;;20.88;74.88;102469.81;5013868;28;20025;-87
2021/08/23 10:33:12;;;;;;;6.88;4.50;;;;;;;20.79;74.69;102476.47;4995331;28;20084;-87
2021/08/23 10:35:50;;;;;;;6.40;4.03;;;;;;;20.76;74.64;102471.41;5009125;28;20036;-89
2021/08/23 10:38:24;;;;;;;6.47;4.00;;;;;;;20.84;74.34;102479.47;4994564;28;20113;-87
2021/08/23 10:41:07;;;;;;;6.32;3.97;;;;;;;20.88;73.51;102478.03;5013540;28;20093;-87
2021/08/23 10:43:52;;;;;;;8.05;4.55;;;;;;;20.86;74.04;102460.97;5031564;28;20395;-89
2021/08/23 10:46:29;;;;;;;6.63;4.15;;;;;;;21.03;73.00;102467.75;4995481;28;20121;-88
2021/08/23 10:48:57;;;;;;;7.00;4.07;;;;;;;21.05;72.82;102468.41;5014734;28;20530;-88
2021/08/23 10:51:30;;;;;;;6.97;4.22;;;;;;;21.04;72.23;102471.38;5011155;28;20052;-89
2021/08/23 10:53:56;;;;;;;;;;;;;;;21.10;71.66;102466.97;5014432;28;20388;-88
2021/08/23 10:56:22;;;;;;;7.43;4.10;;;;;;;21.18;71.59;102473.09;4998536;28;19917;-88
2021/08/23 10:58:49;;;;;;;10.05;4.80;;;;;;;21.24;71.45;102468.69;4998756;28;20029;-88
2021/08/23 11:01:21;;;;;;;9.15;4.43;;;;;;;21.29;71.39;102468.91;5014758;28;20030;-88
2021/08/23 11:04:02;;;;;;;6.45;3.90;;;;;;;21.45;70.67;102449.41;5015061;28;20400;-88
2021/08/23 11:06:29;;;;;;;7.25;4.07;;;;;;;21.63;69.94;102461.66;4999036;28;20033;-88
2021/08/23 11:09:12;;;;;;;7.30;4.35;;;;;;;21.70;70.11;102454.31;5031312;28;20084;-88
2021/08/23 11:11:39;;;;;;;8.93;4.45;;;;;;;21.81;69.92;102459.16;5005738;28;20686;-88
2021/08/23 11:14:20;;;;;;;9.55;4.15;;;;;;;21.89;69.21;102472.66;5007343;28;20021;-88
2021/08/23 11:16:53;;;;;;;7.80;3.90;;;;;;;21.98;68.65;102461.47;5013951;28;20452;-88
2021/08/23 11:19:24;;;;;;;7.00;4.18;;;;;;;22.17;68.11;102463.38;5014502;28;20029;-88
2021/08/23 11:21:57;;;;;;;5.45;4.00;;;;;;;22.53;66.59;102456.59;5013820;28;20109;-88